sensor_id;sensor_type;location;lat;lon;timestamp;pressure;altitude;pressure_sealevel;temperature;humidity
19128;BME280;9696;53.686;10.094;2023-06-22T00:01:41;101816.81;;;16.68;100.00
19128;BME280;9696;53.686;10.094;2023-06-22T00:04:10;101820.94;;;16.43;100.00
19128;BME280;9696;53.686;10.094;2023-06-22T00:06:39;101831.53;;;16.24;100.00
19128;BME280;9696;53.686;10.094;2023-06-22T00:09:10;101830.88;;;16.22;100.00
19128;BME280;9696;53.686;10.094;2023-06-22T00:11:39;101826.69;;;16.19;100.00
19128;BME280;9696;53.686;10.094;2023-06-22T00:14:08;101834.66;;;16.10;100.00
19128;BME280;9696;53.686;10.094;2023-06-22T00:16:37;101831.03;;;16.11;100.00
19128;BME280;9696;53.686;10.094;2023-06-22T00:19:06;101835.31;;;16.21;100.00
19128;BME280;9696;53.686;10.094;2023-06-22T00:21:38;101823.34;;;16.17;100.00
19128;BME280;9696;53.686;10.094;2023-06-22T00:24:09;101826.84;;;16.18;100.00
19128;BME280;9696;53.686;10.094;2023-06-22T00:26:38;101834.44;;;16.40;100.00
19128;BME280;9696;53.686;10.094;2023-06-22T00:29:10;101813.84;;;16.34;100.00
19128;BME280;9696;53.686;10.094;2023-06-22T00:31:39;101821.53;;;16.27;100.00
19128;BME280;9696;53.686;10.094;2023-06-22T00:34:09;101835.03;;;16.34;100.00
19128;BME280;9696;53.686;10.094;2023-06-22T00:36:38;101832.66;;;16.31;100.00
19128;BME280;9696;53.686;10.094;2023-06-22T00:39:10;101841.00;;;16.45;100.00
19128;BME280;9696;53.686;10.094;2023-06-22T00:41:39;101836.53;;;16.36;100.00
19128;BME280;9696;53.686;10.094;2023-06-22T00:44:08;101842.81;;;16.45;100.00
19128;BME280;9696;53.686;10.094;2023-06-22T00:46:38;101831.91;;;16.48;100.00
19128;BME280;9696;53.686;10.094;2023-06-22T00:49:07;101835.88;;;16.34;100.00
19128;BME280;9696;53.686;10.094;2023-06-22T00:51:37;101841.88;;;16.17;100.00
19128;BME280;9696;53.686;10.094;2023-06-22T00:54:06;101839.25;;;16.08;100.00
19128;BME280;9696;53.686;10.094;2023-06-22T00:56:37;101853.88;;;16.02;100.00
19128;BME280;9696;53.686;10.094;2023-06-22T00:59:06;101851.78;;;16.15;100.00
19128;BME280;9696;53.686;10.094;2023-06-22T01:01:35;101849.22;;;16.42;100.00
19128;BME280;9696;53.686;10.094;2023-06-22T01:04:09;101848.09;;;16.45;100.00
19128;BME280;9696;53.686;10.094;2023-06-22T01:06:47;101853.81;;;16.50;100.00
19128;BME280;9696;53.686;10.094;2023-06-22T01:09:27;101852.25;;;16.67;100.00
19128;BME280;9696;53.686;10.094;2023-06-22T01:12:02;101846.88;;;16.20;100.00
19128;BME280;9696;53.686;10.094;2023-06-22T01:14:43;101851.63;;;16.17;100.00
19128;BME280;9696;53.686;10.094;2023-06-22T01:17:20;101859.88;;;16.23;100.00
19128;BME280;9696;53.686;10.094;2023-06-22T01:19:51;101849.22;;;16.42;100.00
19128;BME280;9696;53.686;10.094;2023-06-22T01:22:26;101850.34;;;16.40;100.00
19128;BME280;9696;53.686;10.094;2023-06-22T01:25:05;101843.81;;;16.34;100.00
19128;BME280;9696;53.686;10.094;2023-06-22T01:27:46;101845.56;;;16.43;100.00
19128;BME280;9696;53.686;10.094;2023-06-22T01:30:19;101836.41;;;16.28;100.00
19128;BME280;9696;53.686;10.094;2023-06-22T01:32:49;101837.00;;;16.22;100.00
19128;BME280;9696;53.686;10.094;2023-06-22T01:35:19;101833.09;;;16.17;100.00
19128;BME280;9696;53.686;10.094;2023-06-22T01:37:50;101835.22;;;15.84;100.00
19128;BME280;9696;53.686;10.094;2023-06-22T01:40:20;101842.59;;;15.90;100.00
19128;BME280;9696;53.686;10.094;2023-06-22T01:42:52;101834.78;;;15.89;100.00
19128;BME280;9696;53.686;10.094;2023-06-22T01:45:24;101839.66;;;15.93;100.00
19128;BME280;9696;53.686;10.094;2023-06-22T01:47:55;101830.47;;;15.97;100.00
19128;BME280;9696;53.686;10.094;2023-06-22T01:50:26;101831.19;;;15.99;100.00
19128;BME280;9696;53.686;10.094;2023-06-22T01:52:56;101831.31;;;15.88;100.00
19128;BME280;9696;53.686;10.094;2023-06-22T01:55:26;101840.50;;;15.94;100.00
19128;BME280;9696;53.686;10.094;2023-06-22T01:57:55;101841.19;;;15.57;100.00
19128;BME280;9696;53.686;10.094;2023-06-22T02:00:30;101846.31;;;15.49;100.00
19128;BME280;9696;53.686;10.094;2023-06-22T02:03:03;101856.22;;;15.57;100.00
19128;BME280;9696;53.686;10.094;2023-06-22T02:05:38;101850.81;;;15.68;100.00
19128;BME280;9696;53.686;10.094;2023-06-22T02:08:12;101851.09;;;15.84;100.00
19128;BME280;9696;53.686;10.094;2023-06-22T02:10:45;101852.75;;;15.85;100.00
19128;BME280;9696;53.686;10.094;2023-06-22T02:13:16;101850.13;;;15.76;100.00
19128;BME280;9696;53.686;10.094;2023-06-22T02:15:48;101851.66;;;15.59;100.00
19128;BME280;9696;53.686;10.094;2023-06-22T02:18:18;101852.63;;;15.77;100.00
19128;BME280;9696;53.686;10.094;2023-06-22T02:20:48;101855.13;;;15.79;100.00
19128;BME280;9696;53.686;10.094;2023-06-22T02:23:17;101859.56;;;15.59;100.00
19128;BME280;9696;53.686;10.094;2023-06-22T02:25:47;101856.09;;;15.59;100.00
19128;BME280;9696;53.686;10.094;2023-06-22T02:28:16;101855.09;;;15.50;100.00
19128;BME280;9696;53.686;10.094;2023-06-22T02:30:47;101858.47;;;15.62;100.00
19128;BME280;9696;53.686;10.094;2023-06-22T02:33:16;101858.75;;;15.68;100.00
19128;BME280;9696;53.686;10.094;2023-06-22T02:35:47;101852.31;;;15.61;100.00
19128;BME280;9696;53.686;10.094;2023-06-22T02:38:16;101849.28;;;15.56;100.00
19128;BME280;9696;53.686;10.094;2023-06-22T02:40:47;101848.03;;;15.60;100.00
19128;BME280;9696;53.686;10.094;2023-06-22T02:43:17;101833.63;;;15.43;100.00
19128;BME280;9696;53.686;10.094;2023-06-22T02:45:48;101835.16;;;15.46;100.00
19128;BME280;9696;53.686;10.094;2023-06-22T02:48:17;101835.31;;;15.44;100.00
19128;BME280;9696;53.686;10.094;2023-06-22T02:50:46;101838.22;;;15.41;100.00
19128;BME280;9696;53.686;10.094;2023-06-22T02:53:15;101843.25;;;15.44;100.00
19128;BME280;9696;53.686;10.094;2023-06-22T02:55:47;101846.03;;;15.43;100.00
19128;BME280;9696;53.686;10.094;2023-06-22T02:58:16;101843.69;;;15.49;100.00
19128;BME280;9696;53.686;10.094;2023-06-22T03:00:47;101836.00;;;15.46;100.00
19128;BME280;9696;53.686;10.094;2023-06-22T03:03:16;101839.94;;;15.52;100.00
19128;BME280;9696;53.686;10.094;2023-06-22T03:05:45;101839.78;;;15.53;100.00
19128;BME280;9696;53.686;10.094;2023-06-22T03:08:15;101841.06;;;15.59;100.00
19128;BME280;9696;53.686;10.094;2023-06-22T03:10:44;101836.59;;;15.50;100.00
19128;BME280;9696;53.686;10.094;2023-06-22T03:13:13;101839.88;;;15.42;100.00
19128;BME280;9696;53.686;10.094;2023-06-22T03:15:43;101840.72;;;15.43;100.00
19128;BME280;9696;53.686;10.094;2023-06-22T03:18:15;101854.44;;;15.18;100.00
19128;BME280;9696;53.686;10.094;2023-06-22T03:20:44;101854.69;;;15.05;100.00
19128;BME280;9696;53.686;10.094;2023-06-22T03:23:13;101851.59;;;15.00;100.00
19128;BME280;9696;53.686;10.094;2023-06-22T03:25:43;101863.41;;;14.96;100.00
19128;BME280;9696;53.686;10.094;2023-06-22T03:28:14;101868.19;;;15.12;100.00
19128;BME280;9696;53.686;10.094;2023-06-22T03:30:43;101868.22;;;15.21;100.00
19128;BME280;9696;53.686;10.094;2023-06-22T03:33:14;101866.41;;;15.12;100.00
19128;BME280;9696;53.686;10.094;2023-06-22T03:35:43;101870.22;;;15.29;100.00
19128;BME280;9696;53.686;10.094;2023-06-22T03:38:12;101869.50;;;15.27;100.00
19128;BME280;9696;53.686;10.094;2023-06-22T03:40:41;101878.44;;;15.35;100.00
19128;BME280;9696;53.686;10.094;2023-06-22T03:43:11;101866.41;;;15.22;100.00
19128;BME280;9696;53.686;10.094;2023-06-22T03:45:40;101876.75;;;15.34;100.00
19128;BME280;9696;53.686;10.094;2023-06-22T03:48:09;101882.44;;;15.30;100.00
19128;BME280;9696;53.686;10.094;2023-06-22T03:50:39;101875.22;;;15.32;100.00
19128;BME280;9696;53.686;10.094;2023-06-22T03:53:09;101879.44;;;15.44;100.00
19128;BME280;9696;53.686;10.094;2023-06-22T03:55:40;101880.00;;;15.47;100.00
19128;BME280;9696;53.686;10.094;2023-06-22T03:58:09;101876.63;;;15.45;100.00
19128;BME280;9696;53.686;10.094;2023-06-22T04:00:38;101870.44;;;15.66;100.00
19128;BME280;9696;53.686;10.094;2023-06-22T04:03:07;101863.63;;;15.63;100.00
19128;BME280;9696;53.686;10.094;2023-06-22T04:05:39;101863.78;;;15.71;100.00
19128;BME280;9696;53.686;10.094;2023-06-22T04:08:08;101874.09;;;15.84;100.00
19128;BME280;9696;53.686;10.094;2023-06-22T04:10:37;101872.81;;;15.97;100.00
19128;BME280;9696;53.686;10.094;2023-06-22T04:13:07;101875.03;;;15.73;100.00
19128;BME280;9696;53.686;10.094;2023-06-22T04:15:36;101875.34;;;15.99;100.00
19128;BME280;9696;53.686;10.094;2023-06-22T04:18:05;101871.28;;;16.04;100.00
19128;BME280;9696;53.686;10.094;2023-06-22T04:20:35;101861.38;;;16.16;100.00
19128;BME280;9696;53.686;10.094;2023-06-22T04:23:05;101856.78;;;16.18;100.00
19128;BME280;9696;53.686;10.094;2023-06-22T04:25:35;101870.44;;;16.04;100.00
19128;BME280;9696;53.686;10.094;2023-06-22T04:28:04;101867.53;;;16.26;100.00
19128;BME280;9696;53.686;10.094;2023-06-22T04:30:40;101863.78;;;16.19;100.00
19128;BME280;9696;53.686;10.094;2023-06-22T04:33:14;101873.34;;;16.20;100.00
19128;BME280;9696;53.686;10.094;2023-06-22T04:35:45;101871.56;;;16.30;100.00
19128;BME280;9696;53.686;10.094;2023-06-22T04:38:16;101869.03;;;16.38;100.00
19128;BME280;9696;53.686;10.094;2023-06-22T04:40:45;101872.91;;;16.54;100.00
19128;BME280;9696;53.686;10.094;2023-06-22T04:43:14;101860.75;;;16.70;100.00
19128;BME280;9696;53.686;10.094;2023-06-22T04:45:44;101858.13;;;16.61;100.00
19128;BME280;9696;53.686;10.094;2023-06-22T04:48:13;101856.66;;;16.85;100.00
19128;BME280;9696;53.686;10.094;2023-06-22T04:50:44;101854.41;;;16.90;100.00
19128;BME280;9696;53.686;10.094;2023-06-22T04:53:14;101855.38;;;16.89;100.00
19128;BME280;9696;53.686;10.094;2023-06-22T04:55:43;101865.91;;;16.72;100.00
19128;BME280;9696;53.686;10.094;2023-06-22T04:58:13;101859.22;;;16.68;100.00
19128;BME280;9696;53.686;10.094;2023-06-22T05:00:42;101857.22;;;17.07;100.00
19128;BME280;9696;53.686;10.094;2023-06-22T05:03:12;101855.28;;;17.36;100.00
19128;BME280;9696;53.686;10.094;2023-06-22T05:05:47;101848.00;;;17.65;100.00
19128;BME280;9696;53.686;10.094;2023-06-22T05:08:19;101844.88;;;17.42;100.00
19128;BME280;9696;53.686;10.094;2023-06-22T05:10:50;101843.50;;;17.83;100.00
19128;BME280;9696;53.686;10.094;2023-06-22T05:13:33;101836.97;;;17.96;100.00
19128;BME280;9696;53.686;10.094;2023-06-22T05:16:03;101832.22;;;18.51;100.00
19128;BME280;9696;53.686;10.094;2023-06-22T05:18:33;101836.69;;;18.50;100.00
19128;BME280;9696;53.686;10.094;2023-06-22T05:21:03;101833.34;;;18.22;100.00
19128;BME280;9696;53.686;10.094;2023-06-22T05:23:33;101845.00;;;17.86;100.00
19128;BME280;9696;53.686;10.094;2023-06-22T05:26:03;101841.19;;;18.50;100.00
19128;BME280;9696;53.686;10.094;2023-06-22T05:28:50;101845.00;;;18.04;100.00
19128;BME280;9696;53.686;10.094;2023-06-22T05:31:37;101843.47;;;18.96;100.00
19128;BME280;9696;53.686;10.094;2023-06-22T05:34:25;101827.94;;;19.34;100.00
19128;BME280;9696;53.686;10.094;2023-06-22T05:36:54;101828.88;;;19.16;100.00
19128;BME280;9696;53.686;10.094;2023-06-22T05:39:25;101829.44;;;19.36;100.00
19128;BME280;9696;53.686;10.094;2023-06-22T05:41:54;101830.75;;;19.24;100.00
19128;BME280;9696;53.686;10.094;2023-06-22T05:44:23;101834.00;;;19.60;100.00
19128;BME280;9696;53.686;10.094;2023-06-22T05:46:52;101834.22;;;19.83;100.00
19128;BME280;9696;53.686;10.094;2023-06-22T05:49:21;101828.88;;;19.66;100.00
19128;BME280;9696;53.686;10.094;2023-06-22T05:51:52;101831.84;;;19.71;100.00
19128;BME280;9696;53.686;10.094;2023-06-22T05:54:21;101823.38;;;20.16;100.00
19128;BME280;9696;53.686;10.094;2023-06-22T05:56:52;101821.06;;;20.30;100.00
19128;BME280;9696;53.686;10.094;2023-06-22T05:59:21;101817.69;;;20.52;100.00
19128;BME280;9696;53.686;10.094;2023-06-22T06:01:50;101820.88;;;20.31;100.00
19128;BME280;9696;53.686;10.094;2023-06-22T06:04:19;101813.47;;;21.04;100.00
19128;BME280;9696;53.686;10.094;2023-06-22T06:06:49;101801.25;;;21.10;100.00
19128;BME280;9696;53.686;10.094;2023-06-22T06:09:18;101801.00;;;20.58;100.00
19128;BME280;9696;53.686;10.094;2023-06-22T06:11:47;101800.94;;;20.74;100.00
19128;BME280;9696;53.686;10.094;2023-06-22T06:14:18;101806.50;;;20.95;100.00
19128;BME280;9696;53.686;10.094;2023-06-22T06:16:48;101805.97;;;21.84;100.00
19128;BME280;9696;53.686;10.094;2023-06-22T06:19:18;101813.81;;;21.40;100.00
19128;BME280;9696;53.686;10.094;2023-06-22T06:21:47;101806.69;;;21.78;100.00
19128;BME280;9696;53.686;10.094;2023-06-22T06:24:16;101805.84;;;21.32;100.00
19128;BME280;9696;53.686;10.094;2023-06-22T06:26:45;101805.75;;;21.48;100.00
19128;BME280;9696;53.686;10.094;2023-06-22T06:29:15;101808.69;;;21.31;100.00
19128;BME280;9696;53.686;10.094;2023-06-22T06:31:46;101802.72;;;21.51;100.00
19128;BME280;9696;53.686;10.094;2023-06-22T06:34:16;101802.06;;;21.72;100.00
19128;BME280;9696;53.686;10.094;2023-06-22T06:36:45;101796.59;;;21.43;100.00
19128;BME280;9696;53.686;10.094;2023-06-22T06:39:14;101800.69;;;21.31;100.00
19128;BME280;9696;53.686;10.094;2023-06-22T06:41:44;101804.28;;;21.38;100.00
19128;BME280;9696;53.686;10.094;2023-06-22T06:44:16;101805.72;;;20.87;100.00
19128;BME280;9696;53.686;10.094;2023-06-22T06:46:46;101812.84;;;20.55;100.00
19128;BME280;9696;53.686;10.094;2023-06-22T06:49:15;101805.78;;;20.70;100.00
19128;BME280;9696;53.686;10.094;2023-06-22T06:51:44;101814.03;;;20.45;100.00
19128;BME280;9696;53.686;10.094;2023-06-22T06:54:14;101810.84;;;20.57;100.00
19128;BME280;9696;53.686;10.094;2023-06-22T06:56:43;101807.72;;;20.46;100.00
19128;BME280;9696;53.686;10.094;2023-06-22T06:59:16;101804.44;;;20.66;100.00
19128;BME280;9696;53.686;10.094;2023-06-22T07:01:46;101800.25;;;20.80;100.00
19128;BME280;9696;53.686;10.094;2023-06-22T07:04:16;101801.81;;;21.36;100.00
19128;BME280;9696;53.686;10.094;2023-06-22T07:06:45;101799.31;;;21.35;100.00
19128;BME280;9696;53.686;10.094;2023-06-22T07:09:15;101798.16;;;22.20;100.00
19128;BME280;9696;53.686;10.094;2023-06-22T07:11:44;101804.94;;;21.85;100.00
19128;BME280;9696;53.686;10.094;2023-06-22T07:14:13;101798.78;;;22.07;100.00
19128;BME280;9696;53.686;10.094;2023-06-22T07:16:42;101797.03;;;22.44;100.00
19128;BME280;9696;53.686;10.094;2023-06-22T07:19:13;101799.25;;;21.88;100.00
19128;BME280;9696;53.686;10.094;2023-06-22T07:21:42;101787.56;;;22.27;100.00
19128;BME280;9696;53.686;10.094;2023-06-22T07:24:11;101792.06;;;21.89;100.00
19128;BME280;9696;53.686;10.094;2023-06-22T07:26:40;101798.81;;;22.66;100.00
19128;BME280;9696;53.686;10.094;2023-06-22T07:29:13;101799.00;;;22.94;100.00
19128;BME280;9696;53.686;10.094;2023-06-22T07:31:42;101792.09;;;22.85;100.00
19128;BME280;9696;53.686;10.094;2023-06-22T07:34:14;101796.69;;;22.76;100.00
19128;BME280;9696;53.686;10.094;2023-06-22T07:36:43;101794.66;;;22.49;100.00
19128;BME280;9696;53.686;10.094;2023-06-22T07:39:13;101794.78;;;22.55;100.00
19128;BME280;9696;53.686;10.094;2023-06-22T07:41:43;101789.41;;;23.21;100.00
19128;BME280;9696;53.686;10.094;2023-06-22T07:44:12;101782.50;;;23.90;100.00
19128;BME280;9696;53.686;10.094;2023-06-22T07:46:41;101783.78;;;23.73;100.00
19128;BME280;9696;53.686;10.094;2023-06-22T07:49:10;101790.97;;;23.30;100.00
19128;BME280;9696;53.686;10.094;2023-06-22T07:51:41;101803.00;;;22.83;100.00
19128;BME280;9696;53.686;10.094;2023-06-22T07:54:10;101804.25;;;22.43;100.00
19128;BME280;9696;53.686;10.094;2023-06-22T07:56:39;101793.78;;;22.71;100.00
19128;BME280;9696;53.686;10.094;2023-06-22T07:59:08;101799.09;;;22.42;100.00
19128;BME280;9696;53.686;10.094;2023-06-22T08:01:37;101792.91;;;22.85;100.00
19128;BME280;9696;53.686;10.094;2023-06-22T08:04:07;101788.44;;;23.85;100.00
19128;BME280;9696;53.686;10.094;2023-06-22T08:06:36;101786.69;;;22.99;100.00
19128;BME280;9696;53.686;10.094;2023-06-22T08:09:07;101787.44;;;23.44;100.00
19128;BME280;9696;53.686;10.094;2023-06-22T08:11:36;101790.41;;;23.56;100.00
19128;BME280;9696;53.686;10.094;2023-06-22T08:14:05;101777.72;;;23.85;100.00
19128;BME280;9696;53.686;10.094;2023-06-22T08:16:34;101786.50;;;24.63;100.00
19128;BME280;9696;53.686;10.094;2023-06-22T08:19:05;101791.47;;;24.04;100.00
19128;BME280;9696;53.686;10.094;2023-06-22T08:21:34;101786.34;;;25.25;100.00
19128;BME280;9696;53.686;10.094;2023-06-22T08:24:05;101788.84;;;24.79;100.00
19128;BME280;9696;53.686;10.094;2023-06-22T08:26:36;101785.38;;;24.85;100.00
19128;BME280;9696;53.686;10.094;2023-06-22T08:29:05;101786.53;;;24.07;100.00
19128;BME280;9696;53.686;10.094;2023-06-22T08:31:35;101787.75;;;23.56;100.00
19128;BME280;9696;53.686;10.094;2023-06-22T08:34:04;101780.91;;;24.02;100.00
19128;BME280;9696;53.686;10.094;2023-06-22T08:36:33;101772.53;;;24.12;100.00
19128;BME280;9696;53.686;10.094;2023-06-22T08:39:10;101775.69;;;24.91;100.00
19128;BME280;9696;53.686;10.094;2023-06-22T08:41:39;101770.72;;;25.81;100.00
19128;BME280;9696;53.686;10.094;2023-06-22T08:44:08;101773.75;;;25.39;100.00
19128;BME280;9696;53.686;10.094;2023-06-22T08:46:37;101775.41;;;25.33;100.00
19128;BME280;9696;53.686;10.094;2023-06-22T08:49:08;101767.97;;;24.74;100.00
19128;BME280;9696;53.686;10.094;2023-06-22T08:51:38;101778.75;;;24.12;100.00
19128;BME280;9696;53.686;10.094;2023-06-22T08:54:07;101768.59;;;25.24;100.00
19128;BME280;9696;53.686;10.094;2023-06-22T08:56:38;101756.72;;;24.58;100.00
19128;BME280;9696;53.686;10.094;2023-06-22T08:59:07;101757.91;;;25.70;100.00
19128;BME280;9696;53.686;10.094;2023-06-22T09:01:36;101756.44;;;25.80;100.00
19128;BME280;9696;53.686;10.094;2023-06-22T09:04:06;101751.88;;;26.14;100.00
19128;BME280;9696;53.686;10.094;2023-06-22T09:06:38;101749.84;;;25.83;100.00
19128;BME280;9696;53.686;10.094;2023-06-22T09:09:13;101749.56;;;26.17;100.00
19128;BME280;9696;53.686;10.094;2023-06-22T09:11:44;101757.00;;;26.42;100.00
19128;BME280;9696;53.686;10.094;2023-06-22T09:14:13;101745.75;;;26.58;100.00
19128;BME280;9696;53.686;10.094;2023-06-22T09:16:42;101742.34;;;26.82;100.00
19128;BME280;9696;53.686;10.094;2023-06-22T09:19:11;101742.69;;;26.99;100.00
19128;BME280;9696;53.686;10.094;2023-06-22T09:21:41;101734.50;;;26.74;100.00
19128;BME280;9696;53.686;10.094;2023-06-22T09:24:10;101744.16;;;26.44;100.00
19128;BME280;9696;53.686;10.094;2023-06-22T09:26:40;101733.22;;;26.90;100.00
19128;BME280;9696;53.686;10.094;2023-06-22T09:29:10;101731.56;;;26.89;100.00
19128;BME280;9696;53.686;10.094;2023-06-22T09:31:39;101731.19;;;26.72;100.00
19128;BME280;9696;53.686;10.094;2023-06-22T09:34:09;101729.31;;;26.08;100.00
19128;BME280;9696;53.686;10.094;2023-06-22T09:36:38;101727.91;;;25.79;100.00
19128;BME280;9696;53.686;10.094;2023-06-22T09:39:08;101718.41;;;27.37;100.00
19128;BME280;9696;53.686;10.094;2023-06-22T09:41:37;101712.38;;;27.10;100.00
19128;BME280;9696;53.686;10.094;2023-06-22T09:44:06;101711.75;;;26.19;100.00
19128;BME280;9696;53.686;10.094;2023-06-22T09:46:37;101712.25;;;26.47;100.00
19128;BME280;9696;53.686;10.094;2023-06-22T09:49:06;101713.41;;;27.40;100.00
19128;BME280;9696;53.686;10.094;2023-06-22T09:51:35;101715.19;;;26.33;100.00
19128;BME280;9696;53.686;10.094;2023-06-22T09:54:04;101713.53;;;26.83;100.00
19128;BME280;9696;53.686;10.094;2023-06-22T09:56:34;101712.59;;;25.73;100.00
19128;BME280;9696;53.686;10.094;2023-06-22T09:59:03;101714.81;;;26.29;100.00
19128;BME280;9696;53.686;10.094;2023-06-22T10:01:47;101717.13;;;25.93;100.00
19128;BME280;9696;53.686;10.094;2023-06-22T10:04:16;101717.38;;;25.78;100.00
19128;BME280;9696;53.686;10.094;2023-06-22T10:06:45;101715.94;;;24.75;100.00
19128;BME280;9696;53.686;10.094;2023-06-22T10:09:15;101709.88;;;26.00;100.00
19128;BME280;9696;53.686;10.094;2023-06-22T10:11:44;101707.78;;;26.15;100.00
19128;BME280;9696;53.686;10.094;2023-06-22T10:14:13;101697.34;;;26.45;100.00
19128;BME280;9696;53.686;10.094;2023-06-22T10:16:43;101700.19;;;25.86;100.00
19128;BME280;9696;53.686;10.094;2023-06-22T10:19:13;101709.31;;;25.58;100.00
19128;BME280;9696;53.686;10.094;2023-06-22T10:21:42;101705.81;;;24.71;100.00
19128;BME280;9696;53.686;10.094;2023-06-22T10:24:12;101701.66;;;25.55;100.00
19128;BME280;9696;53.686;10.094;2023-06-22T10:26:41;101699.56;;;25.77;100.00
19128;BME280;9696;53.686;10.094;2023-06-22T10:29:10;101698.25;;;26.77;100.00
19128;BME280;9696;53.686;10.094;2023-06-22T10:31:44;101698.47;;;27.13;100.00
19128;BME280;9696;53.686;10.094;2023-06-22T10:34:15;101696.41;;;26.13;100.00
19128;BME280;9696;53.686;10.094;2023-06-22T10:36:44;101691.00;;;26.33;100.00
19128;BME280;9696;53.686;10.094;2023-06-22T10:39:16;101685.50;;;25.42;100.00
19128;BME280;9696;53.686;10.094;2023-06-22T10:41:45;101679.09;;;25.37;100.00
19128;BME280;9696;53.686;10.094;2023-06-22T10:44:14;101672.84;;;26.66;100.00
19128;BME280;9696;53.686;10.094;2023-06-22T10:46:45;101672.09;;;27.89;100.00
19128;BME280;9696;53.686;10.094;2023-06-22T10:49:15;101673.78;;;26.85;100.00
19128;BME280;9696;53.686;10.094;2023-06-22T10:51:45;101678.56;;;26.76;100.00
19128;BME280;9696;53.686;10.094;2023-06-22T10:54:14;101673.78;;;27.41;100.00
19128;BME280;9696;53.686;10.094;2023-06-22T10:56:46;101667.94;;;27.44;100.00
19128;BME280;9696;53.686;10.094;2023-06-22T10:59:15;101663.94;;;27.96;100.00
19128;BME280;9696;53.686;10.094;2023-06-22T11:01:45;101656.41;;;28.71;100.00
19128;BME280;9696;53.686;10.094;2023-06-22T11:04:16;101657.06;;;28.00;100.00
19128;BME280;9696;53.686;10.094;2023-06-22T11:06:45;101660.53;;;27.39;100.00
19128;BME280;9696;53.686;10.094;2023-06-22T11:09:15;101655.25;;;28.30;100.00
19128;BME280;9696;53.686;10.094;2023-06-22T11:11:55;101657.41;;;27.85;100.00
19128;BME280;9696;53.686;10.094;2023-06-22T11:14:24;101645.53;;;28.59;100.00
19128;BME280;9696;53.686;10.094;2023-06-22T11:16:53;101649.09;;;27.69;100.00
19128;BME280;9696;53.686;10.094;2023-06-22T11:19:25;101643.09;;;28.03;100.00
19128;BME280;9696;53.686;10.094;2023-06-22T11:21:54;101637.53;;;27.37;100.00
19128;BME280;9696;53.686;10.094;2023-06-22T11:24:24;101636.72;;;27.97;100.00
19128;BME280;9696;53.686;10.094;2023-06-22T11:26:53;101635.84;;;28.40;100.00
19128;BME280;9696;53.686;10.094;2023-06-22T11:29:24;101636.19;;;29.15;100.00
19128;BME280;9696;53.686;10.094;2023-06-22T11:32:05;101635.59;;;29.13;100.00
19128;BME280;9696;53.686;10.094;2023-06-22T11:34:39;101630.00;;;29.61;100.00
19128;BME280;9696;53.686;10.094;2023-06-22T11:37:08;101627.59;;;29.06;100.00
19128;BME280;9696;53.686;10.094;2023-06-22T11:39:37;101621.03;;;29.25;100.00
19128;BME280;9696;53.686;10.094;2023-06-22T11:42:14;101626.59;;;29.30;100.00
19128;BME280;9696;53.686;10.094;2023-06-22T11:44:44;101626.53;;;28.66;100.00
19128;BME280;9696;53.686;10.094;2023-06-22T11:47:13;101630.66;;;28.02;100.00
19128;BME280;9696;53.686;10.094;2023-06-22T11:49:43;101621.03;;;28.42;100.00
19128;BME280;9696;53.686;10.094;2023-06-22T11:52:13;101627.53;;;28.23;100.00
19128;BME280;9696;53.686;10.094;2023-06-22T11:54:42;101622.22;;;28.46;100.00
19128;BME280;9696;53.686;10.094;2023-06-22T11:57:11;101617.25;;;27.95;100.00
19128;BME280;9696;53.686;10.094;2023-06-22T11:59:40;101632.16;;;26.43;100.00
19128;BME280;9696;53.686;10.094;2023-06-22T12:02:09;101618.34;;;27.51;100.00
19128;BME280;9696;53.686;10.094;2023-06-22T12:04:40;101620.97;;;27.58;100.00
19128;BME280;9696;53.686;10.094;2023-06-22T12:07:10;101618.34;;;27.70;100.00
19128;BME280;9696;53.686;10.094;2023-06-22T12:09:39;101604.06;;;27.87;100.00
19128;BME280;9696;53.686;10.094;2023-06-22T12:12:09;101608.41;;;27.52;100.00
19128;BME280;9696;53.686;10.094;2023-06-22T12:14:38;101593.38;;;28.29;100.00
19128;BME280;9696;53.686;10.094;2023-06-22T12:17:07;101586.00;;;28.24;100.00
19128;BME280;9696;53.686;10.094;2023-06-22T12:19:37;101585.22;;;29.30;100.00
19128;BME280;9696;53.686;10.094;2023-06-22T12:22:06;101586.00;;;28.84;100.00
19128;BME280;9696;53.686;10.094;2023-06-22T12:24:36;101587.50;;;28.20;100.00
19128;BME280;9696;53.686;10.094;2023-06-22T12:27:06;101584.88;;;27.95;100.00
19128;BME280;9696;53.686;10.094;2023-06-22T12:29:35;101578.00;;;28.47;100.00
19128;BME280;9696;53.686;10.094;2023-06-22T12:32:05;101572.19;;;28.32;100.00
19128;BME280;9696;53.686;10.094;2023-06-22T12:34:34;101565.84;;;28.38;100.00
19128;BME280;9696;53.686;10.094;2023-06-22T12:37:04;101558.81;;;27.71;100.00
19128;BME280;9696;53.686;10.094;2023-06-22T12:39:33;101565.63;;;28.10;100.00
19128;BME280;9696;53.686;10.094;2023-06-22T12:42:04;101558.41;;;28.22;100.00
19128;BME280;9696;53.686;10.094;2023-06-22T12:44:37;101555.50;;;27.51;100.00
19128;BME280;9696;53.686;10.094;2023-06-22T12:47:06;101564.59;;;27.32;100.00
19128;BME280;9696;53.686;10.094;2023-06-22T12:49:36;101557.59;;;27.85;100.00
19128;BME280;9696;53.686;10.094;2023-06-22T12:52:09;101552.31;;;29.33;100.00
19128;BME280;9696;53.686;10.094;2023-06-22T12:54:40;101555.69;;;28.22;100.00
19128;BME280;9696;53.686;10.094;2023-06-22T12:57:23;101542.78;;;29.07;100.00